MSC Bari — A8YD3 — position and weather

sailwx.info

Track history (hours):
 
Tides and Currents Weather Stations Pressure Air Temp Water Temp Dewpoint Dewpoint Depression Visibility Wind Speed Wind Dir Waves Ship Positions

MSC Bari

Last reported at 2017-Apr-20 06:45 UTC. Time now 2017-Apr-26 07:44 UTC.
Position N 30°48' E 032°19'.

Length 366 m; draft 16 m.

Type: Ship (hazmat cat A). MMSI: 636092188.

Date/timePositionNaut miles runAvg speedWind from/ knotsBaromVisibWave heightAir tempDewpointWater temp
2017-Apr-20 06:45N 30°48' E 032°19'4 8.7
2017-Apr-20 06:18N 30°52' E 032°19'89 6.5
2017-Apr-19 16:41N 32°08' E 031°25'516.8
2017-Apr-19 16:23N 32°11' E 031°20'49017.0
2017-Apr-18 11:33N 37°31' E 023°48'117.4
2017-Apr-18 11:30N 37°31' E 023°47'817.3
2017-Apr-18 11:00N 37°39' E 023°43'816.9
2017-Apr-18 10:30N 37°46' E 023°38'815.9
2017-Apr-18 10:00N 37°54' E 023°36'3 5.6
2017-Apr-18 09:30N 37°57' E 023°35'0 0.6
2017-Apr-18 09:00N 37°57' E 023°35'0 0.0
2017-Apr-18 08:30N 37°57' E 023°35'0 0.0
2017-Apr-18 08:00N 37°57' E 023°35'0 0.0
2017-Apr-18 07:30N 37°57' E 023°35'0 0.0
2017-Apr-18 07:00N 37°57' E 023°35'0 0.0
2017-Apr-18 06:30N 37°57' E 023°35'0 0.0
2017-Apr-18 06:00N 37°57' E 023°35'0 0.0
2017-Apr-18 05:30N 37°57' E 023°35'0 0.0
2017-Apr-18 05:00N 37°57' E 023°35'0 0.0
2017-Apr-18 04:30N 37°57' E 023°35'0 0.0
2017-Apr-18 04:00N 37°57' E 023°35'0 0.0
2017-Apr-18 03:30N 37°57' E 023°35'0 0.0
2017-Apr-18 03:00N 37°57' E 023°35'0 0.0
2017-Apr-18 02:30N 37°57' E 023°35'0 0.0
2017-Apr-18 02:00N 37°57' E 023°35'0 0.0
2017-Apr-18 01:30N 37°57' E 023°35'0 0.0
2017-Apr-18 01:00N 37°57' E 023°35'0 0.0
2017-Apr-18 00:30N 37°57' E 023°35'0 0.0
2017-Apr-18 00:00N 37°57' E 023°35'0 0.0
2017-Apr-17 23:30N 37°57' E 023°35'0 0.0
2017-Apr-17 23:00N 37°57' E 023°35'0 0.0
2017-Apr-17 22:30N 37°57' E 023°35'0 0.0
2017-Apr-17 22:00N 37°57' E 023°35'0 0.0
2017-Apr-17 21:30N 37°57' E 023°35'0 0.0
2017-Apr-17 21:00N 37°57' E 023°35'0 0.0
2017-Apr-17 20:30N 37°57' E 023°35'0 0.0
2017-Apr-17 20:00N 37°57' E 023°35'0 0.0
2017-Apr-17 19:30N 37°57' E 023°35'0 0.0
2017-Apr-17 19:00N 37°57' E 023°35'0 0.0
2017-Apr-17 18:30N 37°57' E 023°35'0 0.0
2017-Apr-17 18:00N 37°57' E 023°35'0 0.0
2017-Apr-17 17:30N 37°57' E 023°35'0 0.0
2017-Apr-17 17:00N 37°57' E 023°35'0 0.0
2017-Apr-17 16:30N 37°57' E 023°35'0 0.0
2017-Apr-17 16:00N 37°57' E 023°35'0 0.0
2017-Apr-17 15:30N 37°57' E 023°35'0 0.0
2017-Apr-17 15:00N 37°57' E 023°35'0 0.0
2017-Apr-17 14:00N 37°57' E 023°35'0 0.0
2017-Apr-17 13:30N 37°57' E 023°35'0 0.0
2017-Apr-17 13:00N 37°57' E 023°35'0 0.0
2017-Apr-17 12:30N 37°57' E 023°35'0 0.0
2017-Apr-17 12:00N 37°57' E 023°35'0 0.0
2017-Apr-17 11:30N 37°57' E 023°35'0 0.0
2017-Apr-17 10:57N 37°57' E 023°35'0 0.0
2017-Apr-17 10:30N 37°57' E 023°35'0 0.0
2017-Apr-17 10:00N 37°57' E 023°35'0 0.0
2017-Apr-17 09:30N 37°57' E 023°35'0 0.0
2017-Apr-17 09:00N 37°57' E 023°35'0 0.0
2017-Apr-17 08:30N 37°57' E 023°35'0 0.0
2017-Apr-17 08:00N 37°57' E 023°35'0 0.0
2017-Apr-17 07:30N 37°57' E 023°35'0 0.0
2017-Apr-17 07:00N 37°57' E 023°35'0 0.0
2017-Apr-17 06:30N 37°57' E 023°35'0 0.0
2017-Apr-17 06:00N 37°57' E 023°35'0 0.0
2017-Apr-17 05:30N 37°57' E 023°35'0 0.0
2017-Apr-17 05:00N 37°57' E 023°35'0 0.8
2017-Apr-17 04:30N 37°57' E 023°35'2 4.9
2017-Apr-17 04:00N 37°54' E 023°36'2 4.7
2017-Apr-17 03:30N 37°52' E 023°37'0 0.8
2017-Apr-17 03:00N 37°52' E 023°37'4 8.6
2017-Apr-17 02:30N 37°49' E 023°41'714.3
2017-Apr-17 02:00N 37°42' E 023°45'815.3
2017-Apr-17 01:30N 37°36' E 023°51'815.5
2017-Apr-17 01:00N 37°36' E 024°01'  
2017-Apr-11 18:58N 40°55' E 028°41'12 9.7
2017-Apr-11 17:41N 40°46' E 028°51'317.0
2017-Apr-11 17:29N 40°46' E 028°56'917.3
2017-Apr-11 16:59N 40°45' E 029°07'816.6
2017-Apr-11 16:30N 40°44' E 029°18'610.4
2017-Apr-11 15:57N 40°45' E 029°25'510.1
2017-Apr-11 15:28N 40°45' E 029°32'712.9
2017-Apr-11 14:56N 40°45' E 029°41'  
Track history (hours):
 
Tides and Currents Weather Stations Pressure Air Temp Water Temp Dewpoint Dewpoint Depression Visibility Wind Speed Wind Dir Waves Ship Positions

MSC Bari

Last reported at 2017-Apr-20 06:45 UTC. Time now 2017-Apr-26 07:44 UTC.
Position N 30°48' E 032°19'.

Length 366 m; draft 16 m.

Type: Ship (hazmat cat A). MMSI: 636092188.

Date/timePositionNaut miles runAvg speedWind from/ knotsBaromVisibWave heightAir tempDewpointWater temp
2017-Apr-20 06:45N 30°48' E 032°19'4 8.7
2017-Apr-20 06:18N 30°52' E 032°19'89 6.5
2017-Apr-19 16:41N 32°08' E 031°25'516.8
2017-Apr-19 16:23N 32°11' E 031°20'49017.0
2017-Apr-18 11:33N 37°31' E 023°48'117.4
2017-Apr-18 11:30N 37°31' E 023°47'817.3
2017-Apr-18 11:00N 37°39' E 023°43'816.9
2017-Apr-18 10:30N 37°46' E 023°38'815.9
2017-Apr-18 10:00N 37°54' E 023°36'3 5.6
2017-Apr-18 09:30N 37°57' E 023°35'0 0.6
2017-Apr-18 09:00N 37°57' E 023°35'0 0.0
2017-Apr-18 08:30N 37°57' E 023°35'0 0.0
2017-Apr-18 08:00N 37°57' E 023°35'0 0.0
2017-Apr-18 07:30N 37°57' E 023°35'0 0.0
2017-Apr-18 07:00N 37°57' E 023°35'0 0.0
2017-Apr-18 06:30N 37°57' E 023°35'0 0.0
2017-Apr-18 06:00N 37°57' E 023°35'0 0.0
2017-Apr-18 05:30N 37°57' E 023°35'0 0.0
2017-Apr-18 05:00N 37°57' E 023°35'0 0.0
2017-Apr-18 04:30N 37°57' E 023°35'0 0.0
2017-Apr-18 04:00N 37°57' E 023°35'0 0.0
2017-Apr-18 03:30N 37°57' E 023°35'0 0.0
2017-Apr-18 03:00N 37°57' E 023°35'0 0.0
2017-Apr-18 02:30N 37°57' E 023°35'0 0.0
2017-Apr-18 02:00N 37°57' E 023°35'0 0.0
2017-Apr-18 01:30N 37°57' E 023°35'0 0.0
2017-Apr-18 01:00N 37°57' E 023°35'0 0.0
2017-Apr-18 00:30N 37°57' E 023°35'0 0.0
2017-Apr-18 00:00N 37°57' E 023°35'0 0.0
2017-Apr-17 23:30N 37°57' E 023°35'0 0.0
2017-Apr-17 23:00N 37°57' E 023°35'0 0.0
2017-Apr-17 22:30N 37°57' E 023°35'0 0.0
2017-Apr-17 22:00N 37°57' E 023°35'0 0.0
2017-Apr-17 21:30N 37°57' E 023°35'0 0.0
2017-Apr-17 21:00N 37°57' E 023°35'0 0.0
2017-Apr-17 20:30N 37°57' E 023°35'0 0.0
2017-Apr-17 20:00N 37°57' E 023°35'0 0.0
2017-Apr-17 19:30N 37°57' E 023°35'0 0.0
2017-Apr-17 19:00N 37°57' E 023°35'0 0.0
2017-Apr-17 18:30N 37°57' E 023°35'0 0.0
2017-Apr-17 18:00N 37°57' E 023°35'0 0.0
2017-Apr-17 17:30N 37°57' E 023°35'0 0.0
2017-Apr-17 17:00N 37°57' E 023°35'0 0.0
2017-Apr-17 16:30N 37°57' E 023°35'0 0.0
2017-Apr-17 16:00N 37°57' E 023°35'0 0.0
2017-Apr-17 15:30N 37°57' E 023°35'0 0.0
2017-Apr-17 15:00N 37°57' E 023°35'0 0.0
2017-Apr-17 14:00N 37°57' E 023°35'0 0.0
2017-Apr-17 13:30N 37°57' E 023°35'0 0.0
2017-Apr-17 13:00N 37°57' E 023°35'0 0.0
2017-Apr-17 12:30N 37°57' E 023°35'0 0.0
2017-Apr-17 12:00N 37°57' E 023°35'0 0.0
2017-Apr-17 11:30N 37°57' E 023°35'0 0.0
2017-Apr-17 10:57N 37°57' E 023°35'0 0.0
2017-Apr-17 10:30N 37°57' E 023°35'0 0.0
2017-Apr-17 10:00N 37°57' E 023°35'0 0.0
2017-Apr-17 09:30N 37°57' E 023°35'0 0.0
2017-Apr-17 09:00N 37°57' E 023°35'0 0.0
2017-Apr-17 08:30N 37°57' E 023°35'0 0.0
2017-Apr-17 08:00N 37°57' E 023°35'0 0.0
2017-Apr-17 07:30N 37°57' E 023°35'0 0.0
2017-Apr-17 07:00N 37°57' E 023°35'0 0.0
2017-Apr-17 06:30N 37°57' E 023°35'0 0.0
2017-Apr-17 06:00N 37°57' E 023°35'0 0.0
2017-Apr-17 05:30N 37°57' E 023°35'0 0.0
2017-Apr-17 05:00N 37°57' E 023°35'0 0.8
2017-Apr-17 04:30N 37°57' E 023°35'2 4.9
2017-Apr-17 04:00N 37°54' E 023°36'2 4.7
2017-Apr-17 03:30N 37°52' E 023°37'0 0.8
2017-Apr-17 03:00N 37°52' E 023°37'4 8.6
2017-Apr-17 02:30N 37°49' E 023°41'714.3
2017-Apr-17 02:00N 37°42' E 023°45'815.3
2017-Apr-17 01:30N 37°36' E 023°51'815.5
2017-Apr-17 01:00N 37°36' E 024°01'  
2017-Apr-11 18:58N 40°55' E 028°41'12 9.7
2017-Apr-11 17:41N 40°46' E 028°51'317.0
2017-Apr-11 17:29N 40°46' E 028°56'917.3
2017-Apr-11 16:59N 40°45' E 029°07'816.6
2017-Apr-11 16:30N 40°44' E 029°18'610.4
2017-Apr-11 15:57N 40°45' E 029°25'510.1
2017-Apr-11 15:28N 40°45' E 029°32'712.9
2017-Apr-11 14:56N 40°45' E 029°41'  

Dump ship's entire track history